sensor_id;sensor_type;location;lat;lon;timestamp;pressure;altitude;pressure_sealevel;temperature;humidity
74627;BME280;63132;52.268;5.192;2023-07-09T00:02:13;101615.47;;;23.75;62.01
74627;BME280;63132;52.268;5.192;2023-07-09T00:04:39;101613.63;;;23.76;61.64
74627;BME280;63132;52.268;5.192;2023-07-09T00:07:05;101607.72;;;23.72;62.05
74627;BME280;63132;52.268;5.192;2023-07-09T00:09:31;101604.56;;;23.69;61.92
74627;BME280;63132;52.268;5.192;2023-07-09T00:11:57;101597.81;;;23.64;61.79
74627;BME280;63132;52.268;5.192;2023-07-09T00:14:23;101603.44;;;23.63;61.60
74627;BME280;63132;52.268;5.192;2023-07-09T00:16:48;101600.72;;;23.63;61.43
74627;BME280;63132;52.268;5.192;2023-07-09T00:19:16;101602.78;;;23.61;60.75
74627;BME280;63132;52.268;5.192;2023-07-09T00:21:44;101609.91;;;23.62;61.78
74627;BME280;63132;52.268;5.192;2023-07-09T00:24:13;101615.72;;;23.59;61.84
74627;BME280;63132;52.268;5.192;2023-07-09T00:26:40;101610.03;;;23.53;62.07
74627;BME280;63132;52.268;5.192;2023-07-09T00:29:11;101618.16;;;23.53;62.30
74627;BME280;63132;52.268;5.192;2023-07-09T00:31:38;101619.19;;;23.52;62.37
74627;BME280;63132;52.268;5.192;2023-07-09T00:34:09;101615.19;;;23.48;62.49
74627;BME280;63132;52.268;5.192;2023-07-09T00:36:38;101615.19;;;23.48;62.55
74627;BME280;63132;52.268;5.192;2023-07-09T00:39:04;101615.00;;;23.50;62.70
74627;BME280;63132;52.268;5.192;2023-07-09T00:41:32;101612.19;;;23.43;62.42
74627;BME280;63132;52.268;5.192;2023-07-09T00:44:17;101621.53;;;23.40;62.95
74627;BME280;63132;52.268;5.192;2023-07-09T00:49:12;101627.50;;;23.36;62.64
74627;BME280;63132;52.268;5.192;2023-07-09T00:51:43;101632.03;;;23.28;62.25
74627;BME280;63132;52.268;5.192;2023-07-09T00:54:24;101637.44;;;23.28;61.84
74627;BME280;63132;52.268;5.192;2023-07-09T00:56:56;101640.16;;;23.28;62.06
74627;BME280;63132;52.268;5.192;2023-07-09T00:59:26;101642.88;;;23.28;62.10
74627;BME280;63132;52.268;5.192;2023-07-09T01:01:54;101636.59;;;23.28;62.56
74627;BME280;63132;52.268;5.192;2023-07-09T01:04:21;101635.78;;;23.27;62.18
74627;BME280;63132;52.268;5.192;2023-07-09T01:06:51;101628.44;;;23.28;62.08
74627;BME280;63132;52.268;5.192;2023-07-09T01:09:18;101629.31;;;23.28;62.23
74627;BME280;63132;52.268;5.192;2023-07-09T01:11:43;101633.88;;;23.28;62.12
74627;BME280;63132;52.268;5.192;2023-07-09T01:14:13;101626.97;;;23.25;62.04
74627;BME280;63132;52.268;5.192;2023-07-09T01:16:45;101630.97;;;23.29;62.27
74627;BME280;63132;52.268;5.192;2023-07-09T01:19:12;101634.72;;;23.28;62.34
74627;BME280;63132;52.268;5.192;2023-07-09T01:21:39;101632.22;;;23.27;62.80
74627;BME280;63132;52.268;5.192;2023-07-09T01:24:15;101631.56;;;23.25;62.76
74627;BME280;63132;52.268;5.192;2023-07-09T01:26:45;101642.41;;;23.25;62.72
74627;BME280;63132;52.268;5.192;2023-07-09T01:29:11;101639.59;;;23.18;62.84
74627;BME280;63132;52.268;5.192;2023-07-09T01:31:37;101642.69;;;23.15;62.91
74627;BME280;63132;52.268;5.192;2023-07-09T01:34:02;101638.66;;;23.11;63.30
74627;BME280;63132;52.268;5.192;2023-07-09T01:36:28;101632.75;;;23.07;63.36
74627;BME280;63132;52.268;5.192;2023-07-09T01:38:53;101638.19;;;23.07;63.51
74627;BME280;63132;52.268;5.192;2023-07-09T01:41:19;101644.84;;;23.04;63.60
74627;BME280;63132;52.268;5.192;2023-07-09T01:43:45;101644.34;;;23.01;63.62
74627;BME280;63132;52.268;5.192;2023-07-09T01:46:11;101644.25;;;22.94;63.94
74627;BME280;63132;52.268;5.192;2023-07-09T01:48:39;101644.66;;;22.91;64.23
74627;BME280;63132;52.268;5.192;2023-07-09T01:51:15;101645.19;;;22.86;64.07
74627;BME280;63132;52.268;5.192;2023-07-09T01:53:44;101649.75;;;22.86;64.52
74627;BME280;63132;52.268;5.192;2023-07-09T01:56:12;101647.97;;;22.78;64.17
74627;BME280;63132;52.268;5.192;2023-07-09T01:58:37;101653.91;;;22.81;64.41
74627;BME280;63132;52.268;5.192;2023-07-09T02:01:06;101650.59;;;22.86;64.60
74627;BME280;63132;52.268;5.192;2023-07-09T02:03:31;101649.66;;;22.79;64.44
74627;BME280;63132;52.268;5.192;2023-07-09T02:05:57;101656.66;;;22.73;64.48
74627;BME280;63132;52.268;5.192;2023-07-09T02:08:25;101656.66;;;22.73;64.76
74627;BME280;63132;52.268;5.192;2023-07-09T02:10:50;101657.06;;;22.70;64.79
74627;BME280;63132;52.268;5.192;2023-07-09T02:13:16;101648.06;;;22.69;65.00
74627;BME280;63132;52.268;5.192;2023-07-09T02:15:43;101652.63;;;22.69;65.43
74627;BME280;63132;52.268;5.192;2023-07-09T02:18:10;101641.13;;;22.67;65.39
74627;BME280;63132;52.268;5.192;2023-07-09T02:20:35;101642.81;;;22.68;65.44
74627;BME280;63132;52.268;5.192;2023-07-09T02:23:01;101643.84;;;22.67;65.46
74627;BME280;63132;52.268;5.192;2023-07-09T02:25:27;101645.19;;;22.63;65.17
74627;BME280;63132;52.268;5.192;2023-07-09T02:27:52;101645.19;;;22.63;65.35
74627;BME280;63132;52.268;5.192;2023-07-09T02:30:17;101652.69;;;22.61;65.53
74627;BME280;63132;52.268;5.192;2023-07-09T02:32:43;101649.31;;;22.58;65.52
74627;BME280;63132;52.268;5.192;2023-07-09T02:35:08;101655.56;;;22.59;65.62
74627;BME280;63132;52.268;5.192;2023-07-09T02:37:34;101650.53;;;22.56;66.05
74627;BME280;63132;52.268;5.192;2023-07-09T02:39:59;101652.38;;;22.55;65.69
74627;BME280;63132;52.268;5.192;2023-07-09T02:42:24;101651.72;;;22.53;65.99
74627;BME280;63132;52.268;5.192;2023-07-09T02:44:50;101651.06;;;22.51;66.12
74627;BME280;63132;52.268;5.192;2023-07-09T02:47:16;101643.66;;;22.45;65.55
74627;BME280;63132;52.268;5.192;2023-07-09T02:49:41;101642.16;;;22.42;65.49
74627;BME280;63132;52.268;5.192;2023-07-09T02:52:07;101641.97;;;22.44;65.98
74627;BME280;63132;52.268;5.192;2023-07-09T02:54:33;101641.63;;;22.47;65.93
74627;BME280;63132;52.268;5.192;2023-07-09T02:56:59;101636.34;;;22.45;66.00
74627;BME280;63132;52.268;5.192;2023-07-09T02:59:24;101638.25;;;22.45;66.38
74627;BME280;63132;52.268;5.192;2023-07-09T03:01:51;101644.50;;;22.45;66.28
74627;BME280;63132;52.268;5.192;2023-07-09T03:04:17;101656.56;;;22.43;66.23
74627;BME280;63132;52.268;5.192;2023-07-09T03:06:45;101647.38;;;22.44;66.27
74627;BME280;63132;52.268;5.192;2023-07-09T03:09:11;101650.28;;;22.42;66.48
74627;BME280;63132;52.268;5.192;2023-07-09T03:11:36;101642.34;;;22.41;66.41
74627;BME280;63132;52.268;5.192;2023-07-09T03:14:02;101648.47;;;22.34;66.20
74627;BME280;63132;52.268;5.192;2023-07-09T03:16:29;101654.56;;;22.37;66.10
74627;BME280;63132;52.268;5.192;2023-07-09T03:18:55;101652.69;;;22.37;66.60
74627;BME280;63132;52.268;5.192;2023-07-09T03:21:21;101656.97;;;22.31;66.38
74627;BME280;63132;52.268;5.192;2023-07-09T03:23:47;101649.53;;;22.33;66.55
74627;BME280;63132;52.268;5.192;2023-07-09T03:26:12;101647.63;;;22.34;66.59
74627;BME280;63132;52.268;5.192;2023-07-09T03:28:38;101650.53;;;22.32;66.68
74627;BME280;63132;52.268;5.192;2023-07-09T03:31:03;101656.31;;;22.29;66.88
74627;BME280;63132;52.268;5.192;2023-07-09T03:33:28;101650.91;;;22.29;66.90
74627;BME280;63132;52.268;5.192;2023-07-09T03:35:54;101654.28;;;22.31;67.15
74627;BME280;63132;52.268;5.192;2023-07-09T03:38:19;101655.28;;;22.30;67.05
74627;BME280;63132;52.268;5.192;2023-07-09T03:40:45;101649.84;;;22.30;67.18
74627;BME280;63132;52.268;5.192;2023-07-09T03:43:10;101651.28;;;22.26;67.16
74627;BME280;63132;52.268;5.192;2023-07-09T03:45:37;101652.47;;;22.23;67.40
74627;BME280;63132;52.268;5.192;2023-07-09T03:48:04;101655.84;;;22.26;67.33
74627;BME280;63132;52.268;5.192;2023-07-09T03:50:29;101658.53;;;22.26;67.39
74627;BME280;63132;52.268;5.192;2023-07-09T03:52:55;101656.69;;;22.26;67.33
74627;BME280;63132;52.268;5.192;2023-07-09T03:55:20;101666.31;;;22.29;67.31
74627;BME280;63132;52.268;5.192;2023-07-09T03:57:46;101666.13;;;22.30;67.32
74627;BME280;63132;52.268;5.192;2023-07-09T04:00:11;101660.16;;;22.35;67.08
74627;BME280;63132;52.268;5.192;2023-07-09T04:02:38;101666.44;;;22.35;66.96
74627;BME280;63132;52.268;5.192;2023-07-09T04:05:05;101666.53;;;22.42;67.06
74627;BME280;63132;52.268;5.192;2023-07-09T04:07:30;101669.06;;;22.44;66.93
74627;BME280;63132;52.268;5.192;2023-07-09T04:09:55;101670.03;;;22.51;66.73
74627;BME280;63132;52.268;5.192;2023-07-09T04:12:21;101668.66;;;22.55;66.71
74627;BME280;63132;52.268;5.192;2023-07-09T04:14:46;101668.97;;;22.61;66.29
74627;BME280;63132;52.268;5.192;2023-07-09T04:17:12;101670.75;;;22.68;66.00
74627;BME280;63132;52.268;5.192;2023-07-09T04:19:37;101672.09;;;22.73;66.17
74627;BME280;63132;52.268;5.192;2023-07-09T04:22:03;101672.88;;;22.81;65.48
74627;BME280;63132;52.268;5.192;2023-07-09T04:24:30;101679.91;;;22.91;65.61
74627;BME280;63132;52.268;5.192;2023-07-09T04:26:56;101683.00;;;23.03;64.66
74627;BME280;63132;52.268;5.192;2023-07-09T04:29:23;101674.41;;;23.14;64.40
74627;BME280;63132;52.268;5.192;2023-07-09T04:31:48;101672.44;;;23.23;64.36
74627;BME280;63132;52.268;5.192;2023-07-09T04:34:13;101673.00;;;23.34;63.81
74627;BME280;63132;52.268;5.192;2023-07-09T04:36:39;101671.91;;;23.43;63.37
74627;BME280;63132;52.268;5.192;2023-07-09T04:39:04;101670.78;;;23.52;62.48
74627;BME280;63132;52.268;5.192;2023-07-09T04:41:30;101678.44;;;23.64;62.53
74627;BME280;63132;52.268;5.192;2023-07-09T04:43:55;101682.47;;;23.68;62.62
74627;BME280;63132;52.268;5.192;2023-07-09T04:46:20;101678.03;;;23.82;62.25
74627;BME280;63132;52.268;5.192;2023-07-09T04:48:46;101682.53;;;23.90;62.09
74627;BME280;63132;52.268;5.192;2023-07-09T04:51:11;101683.19;;;23.92;62.01
74627;BME280;63132;52.268;5.192;2023-07-09T04:53:37;101678.00;;;23.97;61.71
74627;BME280;63132;52.268;5.192;2023-07-09T04:56:02;101680.34;;;24.00;61.65
74627;BME280;63132;52.268;5.192;2023-07-09T04:58:28;101668.91;;;24.05;61.69
74627;BME280;63132;52.268;5.192;2023-07-09T05:00:57;101671.88;;;24.10;61.19
74627;BME280;63132;52.268;5.192;2023-07-09T05:03:23;101674.03;;;24.15;61.27
74627;BME280;63132;52.268;5.192;2023-07-09T05:05:48;101676.19;;;24.20;61.07
74627;BME280;63132;52.268;5.192;2023-07-09T05:08:14;101677.47;;;24.24;60.99
74627;BME280;63132;52.268;5.192;2023-07-09T05:10:44;101664.34;;;24.28;60.74
74627;BME280;63132;52.268;5.192;2023-07-09T05:13:09;101664.03;;;24.38;61.17
74627;BME280;63132;52.268;5.192;2023-07-09T05:15:35;101673.06;;;24.45;60.86
74627;BME280;63132;52.268;5.192;2023-07-09T05:18:00;101675.47;;;24.55;60.66
74627;BME280;63132;52.268;5.192;2023-07-09T05:20:26;101674.94;;;24.66;60.46
74627;BME280;63132;52.268;5.192;2023-07-09T05:22:51;101670.78;;;24.70;60.50
74627;BME280;63132;52.268;5.192;2023-07-09T05:25:16;101673.34;;;24.79;59.91
74627;BME280;63132;52.268;5.192;2023-07-09T05:27:42;101670.09;;;24.90;59.73
74627;BME280;63132;52.268;5.192;2023-07-09T05:30:08;101672.97;;;24.82;60.05
74627;BME280;63132;52.268;5.192;2023-07-09T05:32:34;101672.78;;;25.12;59.38
74627;BME280;63132;52.268;5.192;2023-07-09T05:35:00;101658.28;;;25.40;59.11
74627;BME280;63132;52.268;5.192;2023-07-09T05:37:25;101653.53;;;25.56;58.96
74627;BME280;63132;52.268;5.192;2023-07-09T05:39:51;101658.22;;;25.76;58.94
74627;BME280;63132;52.268;5.192;2023-07-09T05:42:16;101654.31;;;25.99;58.71
74627;BME280;63132;52.268;5.192;2023-07-09T05:44:41;101656.06;;;26.27;57.80
74627;BME280;63132;52.268;5.192;2023-07-09T05:47:07;101659.03;;;26.53;57.07
74627;BME280;63132;52.268;5.192;2023-07-09T05:49:32;101658.19;;;26.73;56.34
74627;BME280;63132;52.268;5.192;2023-07-09T05:51:58;101663.63;;;26.86;56.03
74627;BME280;63132;52.268;5.192;2023-07-09T05:54:23;101663.81;;;27.05;56.12
74627;BME280;63132;52.268;5.192;2023-07-09T05:56:48;101656.44;;;27.19;55.43
74627;BME280;63132;52.268;5.192;2023-07-09T05:59:14;101673.00;;;27.38;55.05
74627;BME280;63132;52.268;5.192;2023-07-09T06:01:39;101664.09;;;27.56;54.65
74627;BME280;63132;52.268;5.192;2023-07-09T06:04:04;101664.03;;;27.70;54.74
74627;BME280;63132;52.268;5.192;2023-07-09T06:06:31;101673.84;;;27.91;54.77
74627;BME280;63132;52.268;5.192;2023-07-09T06:08:56;101667.78;;;28.15;54.33
74627;BME280;63132;52.268;5.192;2023-07-09T06:11:22;101673.31;;;28.40;52.62
74627;BME280;63132;52.268;5.192;2023-07-09T06:13:49;101671.88;;;28.38;51.38
74627;BME280;63132;52.268;5.192;2023-07-09T06:16:15;101672.16;;;28.55;51.48
74627;BME280;63132;52.268;5.192;2023-07-09T06:18:41;101682.41;;;28.85;51.16
74627;BME280;63132;52.268;5.192;2023-07-09T06:21:06;101686.66;;;29.06;50.60
74627;BME280;63132;52.268;5.192;2023-07-09T06:23:34;101689.78;;;29.10;50.24
74627;BME280;63132;52.268;5.192;2023-07-09T06:25:59;101693.56;;;29.47;48.67
74627;BME280;63132;52.268;5.192;2023-07-09T06:28:27;101692.22;;;29.37;49.17
74627;BME280;63132;52.268;5.192;2023-07-09T06:30:54;101690.69;;;29.60;48.82
74627;BME280;63132;52.268;5.192;2023-07-09T06:33:19;101694.44;;;29.66;48.63
74627;BME280;63132;52.268;5.192;2023-07-09T06:36:00;101691.88;;;29.83;47.88
74627;BME280;63132;52.268;5.192;2023-07-09T06:38:27;101694.88;;;29.82;48.73
74627;BME280;63132;52.268;5.192;2023-07-09T06:40:53;101697.97;;;29.85;48.99
74627;BME280;63132;52.268;5.192;2023-07-09T06:43:19;101696.91;;;29.86;48.93
74627;BME280;63132;52.268;5.192;2023-07-09T06:45:53;101694.13;;;29.74;48.17
74627;BME280;63132;52.268;5.192;2023-07-09T06:48:20;101697.66;;;29.94;48.13
74627;BME280;63132;52.268;5.192;2023-07-09T06:50:45;101696.94;;;29.98;48.06
74627;BME280;63132;52.268;5.192;2023-07-09T06:53:11;101695.50;;;30.27;46.37
74627;BME280;63132;52.268;5.192;2023-07-09T06:55:36;101696.66;;;30.19;46.50
74627;BME280;63132;52.268;5.192;2023-07-09T06:58:02;101708.09;;;30.46;45.85
74627;BME280;63132;52.268;5.192;2023-07-09T07:00:27;101704.91;;;30.74;44.70
74627;BME280;63132;52.268;5.192;2023-07-09T07:02:53;101717.66;;;30.68;44.05
74627;BME280;63132;52.268;5.192;2023-07-09T07:05:19;101719.53;;;30.55;44.85
74627;BME280;63132;52.268;5.192;2023-07-09T07:07:44;101726.19;;;30.35;45.03
74627;BME280;63132;52.268;5.192;2023-07-09T07:10:09;101722.00;;;30.33;43.92
74627;BME280;63132;52.268;5.192;2023-07-09T07:12:43;101717.88;;;30.54;43.67
74627;BME280;63132;52.268;5.192;2023-07-09T07:15:09;101712.91;;;29.89;47.88
74627;BME280;63132;52.268;5.192;2023-07-09T07:17:35;101709.75;;;30.05;47.77
74627;BME280;63132;52.268;5.192;2023-07-09T07:20:00;101703.59;;;29.90;48.90
74627;BME280;63132;52.268;5.192;2023-07-09T07:22:25;101719.06;;;29.85;49.12
74627;BME280;63132;52.268;5.192;2023-07-09T07:24:51;101731.34;;;29.63;49.19
74627;BME280;63132;52.268;5.192;2023-07-09T07:27:17;101732.25;;;29.38;49.80
74627;BME280;63132;52.268;5.192;2023-07-09T07:29:42;101727.09;;;29.04;50.73
74627;BME280;63132;52.268;5.192;2023-07-09T07:32:07;101734.97;;;29.19;49.68
74627;BME280;63132;52.268;5.192;2023-07-09T07:34:34;101731.69;;;29.11;49.04
74627;BME280;63132;52.268;5.192;2023-07-09T07:36:59;101738.00;;;29.11;47.63
74627;BME280;63132;52.268;5.192;2023-07-09T07:39:24;101727.91;;;29.12;47.79
74627;BME280;63132;52.268;5.192;2023-07-09T07:41:50;101729.53;;;29.38;47.14
74627;BME280;63132;52.268;5.192;2023-07-09T07:44:16;101734.19;;;29.12;47.72
74627;BME280;63132;52.268;5.192;2023-07-09T07:46:42;101731.31;;;29.45;46.59
74627;BME280;63132;52.268;5.192;2023-07-09T07:49:08;101741.69;;;29.42;45.79
74627;BME280;63132;52.268;5.192;2023-07-09T07:51:33;101743.44;;;29.37;46.37
74627;BME280;63132;52.268;5.192;2023-07-09T07:53:59;101745.50;;;29.41;46.73
74627;BME280;63132;52.268;5.192;2023-07-09T07:56:24;101743.31;;;28.80;48.99
74627;BME280;63132;52.268;5.192;2023-07-09T07:58:51;101738.16;;;28.65;49.40
74627;BME280;63132;52.268;5.192;2023-07-09T08:01:16;101744.25;;;28.35;50.15
74627;BME280;63132;52.268;5.192;2023-07-09T08:03:41;101736.25;;;28.40;50.88
74627;BME280;63132;52.268;5.192;2023-07-09T08:06:07;101751.50;;;28.16;51.82
74627;BME280;63132;52.268;5.192;2023-07-09T08:08:32;101736.44;;;28.06;52.37
74627;BME280;63132;52.268;5.192;2023-07-09T08:11:02;101745.16;;;28.61;51.28
74627;BME280;63132;52.268;5.192;2023-07-09T08:13:31;101742.28;;;28.49;47.99
74627;BME280;63132;52.268;5.192;2023-07-09T08:15:57;101745.44;;;28.13;45.57
74627;BME280;63132;52.268;5.192;2023-07-09T08:18:23;101744.84;;;28.05;44.97
74627;BME280;63132;52.268;5.192;2023-07-09T08:20:48;101735.44;;;28.26;45.98
74627;BME280;63132;52.268;5.192;2023-07-09T08:23:14;101734.78;;;27.98;46.23
74627;BME280;63132;52.268;5.192;2023-07-09T08:25:39;101729.41;;;27.78;47.48
74627;BME280;63132;52.268;5.192;2023-07-09T08:28:05;101733.19;;;27.77;46.99
74627;BME280;63132;52.268;5.192;2023-07-09T08:30:31;101733.41;;;28.21;46.41
74627;BME280;63132;52.268;5.192;2023-07-09T08:32:56;101731.69;;;27.81;46.87
74627;BME280;63132;52.268;5.192;2023-07-09T08:35:22;101732.44;;;28.02;46.96
74627;BME280;63132;52.268;5.192;2023-07-09T08:37:48;101729.66;;;28.09;46.86
74627;BME280;63132;52.268;5.192;2023-07-09T08:40:15;101744.78;;;27.72;47.79
74627;BME280;63132;52.268;5.192;2023-07-09T08:42:43;101735.63;;;27.99;47.79
74627;BME280;63132;52.268;5.192;2023-07-09T08:47:47;101732.28;;;27.97;48.16
74627;BME280;63132;52.268;5.192;2023-07-09T08:50:20;101726.94;;;28.09;47.93
74627;BME280;63132;52.268;5.192;2023-07-09T08:52:48;101721.00;;;28.51;47.88
74627;BME280;63132;52.268;5.192;2023-07-09T08:55:23;101721.75;;;28.65;47.29
74627;BME280;63132;52.268;5.192;2023-07-09T08:58:05;101716.13;;;28.60;46.90
74627;BME280;63132;52.268;5.192;2023-07-09T09:00:51;101715.28;;;28.20;46.49
74627;BME280;63132;52.268;5.192;2023-07-09T09:03:34;101721.94;;;28.38;46.03
74627;BME280;63132;52.268;5.192;2023-07-09T09:06:03;101717.47;;;28.51;46.73
74627;BME280;63132;52.268;5.192;2023-07-09T09:08:39;101715.09;;;29.05;45.72
74627;BME280;63132;52.268;5.192;2023-07-09T09:13:38;101719.66;;;28.60;45.95
74627;BME280;63132;52.268;5.192;2023-07-09T09:16:09;101715.28;;;28.59;45.71
74627;BME280;63132;52.268;5.192;2023-07-09T09:18:41;101719.28;;;28.57;46.16
74627;BME280;63132;52.268;5.192;2023-07-09T09:21:15;101717.50;;;28.69;45.91
74627;BME280;63132;52.268;5.192;2023-07-09T09:23:50;101718.06;;;28.78;45.18
74627;BME280;63132;52.268;5.192;2023-07-09T09:26:21;101720.28;;;28.37;45.78
74627;BME280;63132;52.268;5.192;2023-07-09T09:28:48;101712.03;;;28.69;45.21
74627;BME280;63132;52.268;5.192;2023-07-09T09:31:14;101707.38;;;28.95;44.28
74627;BME280;63132;52.268;5.192;2023-07-09T09:33:41;101702.44;;;28.60;45.95
74627;BME280;63132;52.268;5.192;2023-07-09T09:36:18;101703.13;;;29.00;45.58
74627;BME280;63132;52.268;5.192;2023-07-09T09:38:43;101695.50;;;28.83;45.10
74627;BME280;63132;52.268;5.192;2023-07-09T09:41:18;101692.06;;;29.13;44.01
74627;BME280;63132;52.268;5.192;2023-07-09T09:43:46;101692.41;;;28.98;43.13
74627;BME280;63132;52.268;5.192;2023-07-09T09:46:20;101703.69;;;29.09;43.13
74627;BME280;63132;52.268;5.192;2023-07-09T09:48:48;101710.06;;;29.02;42.83
74627;BME280;63132;52.268;5.192;2023-07-09T09:51:15;101696.78;;;29.06;43.18
74627;BME280;63132;52.268;5.192;2023-07-09T09:53:46;101700.34;;;29.25;43.05
74627;BME280;63132;52.268;5.192;2023-07-09T09:56:27;101697.69;;;29.56;42.92
74627;BME280;63132;52.268;5.192;2023-07-09T09:58:55;101697.31;;;29.34;43.54
74627;BME280;63132;52.268;5.192;2023-07-09T10:01:26;101706.75;;;29.38;43.61
74627;BME280;63132;52.268;5.192;2023-07-09T10:03:56;101694.38;;;29.85;42.50
74627;BME280;63132;52.268;5.192;2023-07-09T10:06:31;101701.56;;;29.48;44.02
74627;BME280;63132;52.268;5.192;2023-07-09T10:11:47;101699.94;;;30.28;43.56
74627;BME280;63132;52.268;5.192;2023-07-09T10:16:52;101692.63;;;31.00;43.13
74627;BME280;63132;52.268;5.192;2023-07-09T10:19:27;101683.97;;;30.48;44.02
74627;BME280;63132;52.268;5.192;2023-07-09T10:22:04;101689.72;;;30.83;43.01
74627;BME280;63132;52.268;5.192;2023-07-09T10:24:51;101685.06;;;30.71;44.24
74627;BME280;63132;52.268;5.192;2023-07-09T10:27:28;101700.78;;;30.40;43.82
74627;BME280;63132;52.268;5.192;2023-07-09T10:33:22;101710.75;;;31.13;43.83
74627;BME280;63132;52.268;5.192;2023-07-09T10:35:37;101721.22;;;30.56;44.43
74627;BME280;63132;52.268;5.192;2023-07-09T10:40:41;101715.03;;;29.87;43.87
74627;BME280;63132;52.268;5.192;2023-07-09T10:43:20;101716.31;;;30.16;42.55
74627;BME280;63132;52.268;5.192;2023-07-09T10:45:53;101705.81;;;30.55;42.24
74627;BME280;63132;52.268;5.192;2023-07-09T10:48:38;101718.53;;;29.95;42.23
74627;BME280;63132;52.268;5.192;2023-07-09T10:51:15;101738.25;;;29.85;43.16
74627;BME280;63132;52.268;5.192;2023-07-09T10:53:48;101729.66;;;29.25;43.72
74627;BME280;63132;52.268;5.192;2023-07-09T10:56:24;101721.44;;;29.43;43.33
74627;BME280;63132;52.268;5.192;2023-07-09T10:59:15;101709.00;;;29.60;42.17
74627;BME280;63132;52.268;5.192;2023-07-09T11:01:45;101706.06;;;29.61;41.32
74627;BME280;63132;52.268;5.192;2023-07-09T11:04:44;101698.16;;;29.34;40.00
74627;BME280;63132;52.268;5.192;2023-07-09T11:07:14;101699.13;;;29.77;40.89
74627;BME280;63132;52.268;5.192;2023-07-09T11:09:44;101697.63;;;29.44;39.25
74627;BME280;63132;52.268;5.192;2023-07-09T11:12:14;101714.13;;;29.75;38.59
74627;BME280;63132;52.268;5.192;2023-07-09T11:14:57;101706.06;;;29.61;39.13
74627;BME280;63132;52.268;5.192;2023-07-09T11:17:26;101708.13;;;29.66;38.81
74627;BME280;63132;52.268;5.192;2023-07-09T11:19:58;101706.97;;;29.74;38.99
74627;BME280;63132;52.268;5.192;2023-07-09T11:22:40;101716.50;;;29.34;40.08
74627;BME280;63132;52.268;5.192;2023-07-09T11:25:07;101703.78;;;29.39;39.31
74627;BME280;63132;52.268;5.192;2023-07-09T11:27:33;101700.38;;;29.44;40.02
74627;BME280;63132;52.268;5.192;2023-07-09T11:30:15;101692.31;;;29.99;39.40
74627;BME280;63132;52.268;5.192;2023-07-09T11:32:47;101683.66;;;30.14;39.42
74627;BME280;63132;52.268;5.192;2023-07-09T11:35:20;101690.53;;;30.35;39.64
74627;BME280;63132;52.268;5.192;2023-07-09T11:37:46;101693.06;;;30.49;38.66
74627;BME280;63132;52.268;5.192;2023-07-09T11:40:13;101683.53;;;30.09;39.18
74627;BME280;63132;52.268;5.192;2023-07-09T11:45:24;101681.88;;;30.87;35.92
74627;BME280;63132;52.268;5.192;2023-07-09T11:50:48;101684.72;;;30.68;36.28
74627;BME280;63132;52.268;5.192;2023-07-09T11:55:52;101690.56;;;30.95;36.23
74627;BME280;63132;52.268;5.192;2023-07-09T11:58:18;101690.06;;;31.35;35.28
74627;BME280;63132;52.268;5.192;2023-07-09T12:00:52;101700.34;;;31.81;36.01
74627;BME280;63132;52.268;5.192;2023-07-09T12:03:30;101709.53;;;31.45;35.56
74627;BME280;63132;52.268;5.192;2023-07-09T12:06:03;101708.72;;;31.74;35.58
74627;BME280;63132;52.268;5.192;2023-07-09T12:08:40;101720.25;;;31.59;36.66
74627;BME280;63132;52.268;5.192;2023-07-09T12:13:46;101727.56;;;31.53;37.59
74627;BME280;63132;52.268;5.192;2023-07-09T12:16:29;101733.53;;;32.20;37.19
74627;BME280;63132;52.268;5.192;2023-07-09T12:18:55;101735.16;;;32.04;37.21
74627;BME280;63132;52.268;5.192;2023-07-09T12:21:22;101733.22;;;31.75;37.07
74627;BME280;63132;52.268;5.192;2023-07-09T12:23:49;101731.47;;;31.69;37.69
74627;BME280;63132;52.268;5.192;2023-07-09T12:26:17;101726.34;;;31.61;38.92
74627;BME280;63132;52.268;5.192;2023-07-09T12:28:43;101728.78;;;30.97;38.53
74627;BME280;63132;52.268;5.192;2023-07-09T12:31:15;101729.81;;;30.60;39.07
74627;BME280;63132;52.268;5.192;2023-07-09T12:33:49;101733.66;;;30.83;38.92
74627;BME280;63132;52.268;5.192;2023-07-09T12:36:16;101734.00;;;30.63;38.13
74627;BME280;63132;52.268;5.192;2023-07-09T12:38:45;101743.88;;;30.40;40.20
74627;BME280;63132;52.268;5.192;2023-07-09T12:41:19;101745.13;;;30.68;39.80
74627;BME280;63132;52.268;5.192;2023-07-09T12:43:45;101762.34;;;31.23;39.66
74627;BME280;63132;52.268;5.192;2023-07-09T12:46:12;101775.25;;;31.35;39.45
74627;BME280;63132;52.268;5.192;2023-07-09T12:48:38;101756.63;;;31.13;38.80
74627;BME280;63132;52.268;5.192;2023-07-09T12:53:43;101750.50;;;31.47;38.42
74627;BME280;63132;52.268;5.192;2023-07-09T12:56:12;101756.38;;;31.50;37.34
74627;BME280;63132;52.268;5.192;2023-07-09T12:58:38;101752.06;;;31.30;38.73
74627;BME280;63132;52.268;5.192;2023-07-09T13:01:13;101755.16;;;31.22;38.31
74627;BME280;63132;52.268;5.192;2023-07-09T13:03:39;101754.19;;;31.52;38.51
74627;BME280;63132;52.268;5.192;2023-07-09T13:06:28;101749.88;;;31.57;36.95
74627;BME280;63132;52.268;5.192;2023-07-09T13:09:00;101745.50;;;31.43;37.08
74627;BME280;63132;52.268;5.192;2023-07-09T13:11:34;101737.31;;;31.73;37.04
74627;BME280;63132;52.268;5.192;2023-07-09T13:14:05;101729.19;;;31.66;36.36
74627;BME280;63132;52.268;5.192;2023-07-09T13:16:38;101718.50;;;31.16;37.20
74627;BME280;63132;52.268;5.192;2023-07-09T13:19:03;101725.94;;;31.04;36.53
74627;BME280;63132;52.268;5.192;2023-07-09T13:21:29;101720.78;;;31.19;35.81
74627;BME280;63132;52.268;5.192;2023-07-09T13:23:55;101720.25;;;31.59;34.65
74627;BME280;63132;52.268;5.192;2023-07-09T13:26:20;101726.09;;;31.62;34.82
74627;BME280;63132;52.268;5.192;2023-07-09T13:28:46;101741.53;;;31.51;35.77